Palo Alto, CA

5:44 AM PST on February 25, 2017 (GMT -0800)
Palo Alto Of Santa Clara County | | Change Station

Elev 3 ft 37.46 °N, 122.11 °W | Updated 8 hours ago

Mostly Cloudy
Mostly Cloudy
46 °F
Feels Like 44 °F
N
6
Wind Variable Wind from West

Today
High -- | Low -- °F
--% Chance of Precip.
Yesterday
High -- | Low -- °F
Precip. -- in
Pressure 30.24 in
Visibility 10.0 miles
Clouds Few 5000 ft
Windchill 44 °F
Dew Point 39 °F
Humidity 76%
Rainfall 0.00 in
Snow Depth Not available.
6:44 AM 5:58 PM
Waning Crescent, 1% visible
METAR KPAO 250447Z 26005KT 10SM FEW050 08/04 A3024
Pressure 30.24 in
Visibility 10.0 miles
Clouds Few 5000 ft
Windchill 44 °F
Dew Point 39 °F
Humidity 76%
Rainfall 0.00 in
Snow Depth Not available.
6:44 AM 5:58 PM
Waning Crescent, 1% visible
METAR KPAO 250447Z 26005KT 10SM FEW050 08/04 A3024

Get Your Daily Forecast Email!

Thanks for signing up!

Be on the lookout for a verification email in your inbox.

You'll start receiving the daily forecast at 8 AM.

×

10-Day Weather Forecast

Almanac

Astronomy

Feb. 25, 2017 Rise Set
Actual Time
Civil Twilight
Nautical Twilight
Astronomical Twilight
Moon
Length of Visible Light
Length of Day
Tomorrow will be .
, % of the Moon is Illuminated

Today's Extremes

State Highs State Lows

Community

WunderPhotos

Upload Photos

1,962,540 photos uploaded!

WunderBlog® & News

Nearby

Air Quality

  Air Quality AQ Index Pollutant
Not available.

Snow Depth

Station Depth Elevation

Earthquake Activity

City Distance Mag. Time & Date
Minimum magnitude displayed is 2.5.

Coastal Water Temperatures

Place Temperature

Stations

Nearby Weather Stations

Station Location Temp. Windchill Dew Point Humidity Wind Precip. Elev Updated Type
                   

Watches & Warnings

There are currently no watches in effect.